Time;durP1;ratioP1;P1;durP2;ratioP2;P2;SDS_P1;SDS_P2;PMS_P1;PMS_P2;Temp;Humidity;BMP_temperature;BMP_pressure;BME280_temperature;BME280_humidity;BME280_pressure;Samples;Min_cycle;Max_cycle;Signal;HPM_P1;HPM_P2
2023/12/12 00:00:29;;;;;;;;;;;;;;;;;;5074525;28;20009;-60
2023/12/12 00:02:55;;;;;;;;;;;;;;;;;;5074948;28;20364;-59
2023/12/12 00:19:04;;;;;;;;;;;;;;;;;;5083304;28;19916;-62
2023/12/12 00:21:30;;;;;;;;;;;;;;;;;;5089155;28;19920;-60
2023/12/12 00:23:56;;;;;;;;;;;;;;;;;;5094427;28;20259;-61
2023/12/12 00:26:22;;;;;;;;;;;;;;;;;;5093009;28;19927;-59
2023/12/12 00:28:48;;;;;;;;;;;;;;;;;;5076714;28;19920;-61
2023/12/12 00:31:14;;;;;;;;;;;;;;;;;;5081240;28;20003;-59
2023/12/12 00:33:40;;;;;;;;;;;;;;;;;;5094222;28;19914;-59
2023/12/12 00:36:06;;;;;;;;;;;;;;;;;;5094286;28;19912;-59
2023/12/12 00:38:31;;;;;;;;;;;;;;;;;;5094061;28;20409;-61
2023/12/12 00:40:58;;;;;;;;;;;;;;;;;;5080944;28;19995;-60
2023/12/12 00:43:24;;;;;;;;;;;;;;;;;;5077387;28;20328;-59
2023/12/12 00:45:50;;;;;;;;;;;;;;;;;;5092025;28;20015;-60
2023/12/12 00:48:17;;;;;;;;;;;;;;;;;;5073761;28;20003;-60
2023/12/12 00:50:43;;;;;;;;;;;;;;;;;;5073364;28;19913;-60
2023/12/12 00:53:08;;;;;;;;;;;;;;;;;;5081636;28;19919;-60
2023/12/12 00:55:34;;;;;;;;;;;;;;;;;;5094076;28;20299;-61
2023/12/12 00:58:00;;;;;;;;;;;;;;;;;;5085001;28;19955;-60
2023/12/12 01:00:26;;;;;;;;;;;;;;;;;;5073577;28;19973;-60
2023/12/12 01:02:52;;;;;;;;;;;;;;;;;;5085727;28;19970;-60
2023/12/12 01:05:18;;;;;;;;;;;;;;;;;;5093526;28;20003;-64
2023/12/12 01:07:44;;;;;;;;;;;;;;;;;;5078645;28;19912;-64
2023/12/12 01:10:10;;;;;;;;;;;;;;;;;;5088556;28;20403;-64
2023/12/12 01:12:36;;;;;;;;;;;;;;;;;;5073999;28;19948;-64
2023/12/12 01:15:02;;;;;;;;;;;;;;;;;;5074974;28;19928;-64
2023/12/12 01:17:28;;;;;;;;;;;;;;;;;;5092827;28;20027;-64
2023/12/12 01:19:53;;;;;;;;;;;;;;;;;;5077526;28;19920;-64
2023/12/12 01:22:19;;;;;;;;;;;;;;;;;;5083349;28;19912;-64
2023/12/12 01:24:45;;;;;;;;;;;;;;;;;;5093004;28;20427;-64
2023/12/12 01:27:11;;;;;;;;;;;;;;;;;;5073042;28;20015;-64
2023/12/12 01:29:37;;;;;;;;;;;;;;;;;;5086737;28;19980;-64
2023/12/12 01:32:03;;;;;;;;;;;;;;;;;;5090657;28;19916;-64
2023/12/12 01:34:29;;;;;;;;;;;;;;;;;;5074688;28;19935;-64
2023/12/12 01:36:55;;;;;;;;;;;;;;;;;;5093178;28;19958;-64
2023/12/12 01:39:21;;;;;;;;;;;;;;;;;;5090746;28;19917;-64
2023/12/12 01:41:47;;;;;;;;;;;;;;;;;;5092872;28;20312;-64
2023/12/12 01:44:13;;;;;;;;;;;;;;;;;;5092808;28;19916;-63
2023/12/12 01:46:39;;;;;;;;;;;;;;;;;;5091491;28;19951;-63
2023/12/12 01:49:04;;;;;;;;;;;;;;;;;;5092582;28;19944;-63
2023/12/12 01:51:30;;;;;;;;;;;;;;;;;;5090433;28;19962;-63
2023/12/12 01:53:56;;;;;;;;;;;;;;;;;;5087384;28;19912;-63
2023/12/12 01:56:22;;;;;;;;;;;;;;;;;;5092655;28;20401;-63
2023/12/12 01:58:48;;;;;;;;;;;;;;;;;;5092721;28;19912;-63
2023/12/12 02:01:14;;;;;;;;;;;;;;;;;;5091857;28;20454;-62
2023/12/12 02:03:40;;;;;;;;;;;;;;;;;;5083236;28;19922;-63
2023/12/12 02:06:06;;;;;;;;;;;;;;;;;;5076959;28;19912;-63
2023/12/12 02:08:32;;;;;;;;;;;;;;;;;;5072291;28;19912;-63
2023/12/12 02:10:58;;;;;;;;;;;;;;;;;;5081623;28;19916;-64
2023/12/12 02:13:24;;;;;;;;;;;;;;;;;;5086899;28;19913;-63
2023/12/12 02:15:50;;;;;;;;;;;;;;;;;;5078307;28;19936;-63
2023/12/12 02:18:16;;;;;;;;;;;;;;;;;;5075947;28;19916;-64
2023/12/12 02:20:42;;;;;;;;;;;;;;;;;;5089550;28;19954;-63
2023/12/12 02:23:08;;;;;;;;;;;;;;;;;;5085394;28;20015;-63
2023/12/12 02:25:34;;;;;;;;;;;;;;;;;;5076162;28;19920;-63
2023/12/12 02:28:00;;;;;;;;;;;;;;;;;;5072254;28;20316;-62
2023/12/12 02:30:25;;;;;;;;;;;;;;;;;;5072065;28;20396;-63
2023/12/12 02:32:51;;;;;;;;;;;;;;;;;;5072573;28;19962;-63
2023/12/12 02:35:17;;;;;;;;;;;;;;;;;;5089492;28;19912;-63
2023/12/12 02:37:43;;;;;;;;;;;;;;;;;;5088971;28;19912;-63
2023/12/12 02:40:09;;;;;;;;;;;;;;;;;;5091818;28;19966;-63
2023/12/12 02:42:35;;;;;;;;;;;;;;;;;;5082811;28;20330;-63
2023/12/12 02:45:01;;;;;;;;;;;;;;;;;;5072214;28;19964;-63
2023/12/12 02:47:27;;;;;;;;;;;;;;;;;;5087167;28;19958;-64
2023/12/12 02:49:53;;;;;;;;;;;;;;;;;;5091745;28;19913;-63
2023/12/12 02:52:19;;;;;;;;;;;;;;;;;;5090961;28;20420;-63
2023/12/12 02:54:44;;;;;;;;;;;;;;;;;;5077816;28;19960;-63
2023/12/12 02:57:10;;;;;;;;;;;;;;;;;;5073152;28;19928;-63
2023/12/12 02:59:36;;;;;;;;;;;;;;;;;;5071793;28;19908;-63
2023/12/12 03:02:02;;;;;;;;;;;;;;;;;;5076871;28;20326;-63
2023/12/12 03:04:28;;;;;;;;;;;;;;;;;;5079375;28;20014;-63
2023/12/12 03:06:54;;;;;;;;;;;;;;;;;;5081967;28;19913;-63
2023/12/12 03:09:20;;;;;;;;;;;;;;;;;;5071541;28;19919;-63
2023/12/12 03:11:46;;;;;;;;;;;;;;;;;;5076753;28;19913;-62
2023/12/12 03:14:12;;;;;;;;;;;;;;;;;;5083410;28;19949;-63
2023/12/12 03:24:52;;;;;;;;;;;;;;;;;;5081519;28;20440;-63
2023/12/12 03:27:18;;;;;;;;;;;;;;;;;;5083524;28;19955;-63
2023/12/12 03:29:44;;;;;;;;;;;;;;;;;;5083483;28;19977;-63
2023/12/12 03:32:10;;;;;;;;;;;;;;;;;;5082826;28;19916;-63
2023/12/12 03:34:36;;;;;;;;;;;;;;;;;;5087763;28;19947;-63
2023/12/12 03:37:02;;;;;;;;;;;;;;;;;;5088000;28;20269;-63
2023/12/12 03:39:28;;;;;;;;;;;;;;;;;;5095026;28;19927;-63
2023/12/12 03:41:53;;;;;;;;;;;;;;;;;;5080379;28;19918;-63
2023/12/12 03:44:19;;;;;;;;;;;;;;;;;;5086684;28;20392;-63
2023/12/12 03:46:46;;;;;;;;;;;;;;;;;;5081894;28;19916;-63
2023/12/12 03:49:12;;;;;;;;;;;;;;;;;;5088982;28;19915;-63
2023/12/12 03:51:38;;;;;;;;;;;;;;;;;;5091044;28;20288;-63
2023/12/12 03:54:04;;;;;;;;;;;;;;;;;;5091215;28;19920;-63
2023/12/12 03:56:30;;;;;;;;;;;;;;;;;;5095191;28;20015;-63
2023/12/12 03:58:56;;;;;;;;;;;;;;;;;;5084982;28;19964;-63
2023/12/12 04:01:22;;;;;;;;;;;;;;;;;;5076684;28;19913;-63
2023/12/12 04:03:48;;;;;;;;;;;;;;;;;;5094072;28;19984;-63
2023/12/12 04:06:14;;;;;;;;;;;;;;;;;;5091523;28;19966;-63
2023/12/12 04:08:39;;;;;;;;;;;;;;;;;;5092650;28;19912;-63
2023/12/12 04:11:05;;;;;;;;;;;;;;;;;;5089763;28;20364;-63
2023/12/12 04:13:31;;;;;;;;;;;;;;;;;;5093981;28;19912;-64
2023/12/12 04:15:57;;;;;;;;;;;;;;;;;;5086324;28;19974;-63
2023/12/12 04:18:23;;;;;;;;;;;;;;;;;;5089807;28;19959;-64
2023/12/12 04:20:49;;;;;;;;;;;;;;;;;;5084614;28;20338;-63
2023/12/12 04:23:15;;;;;;;;;;;;;;;;;;5093651;28;19922;-64
2023/12/12 04:25:41;;;;;;;;;;;;;;;;;;5094589;28;19916;-59
2023/12/12 04:28:07;;;;;;;;;;;;;;;;;;5093164;28;20368;-61
2023/12/12 04:30:33;;;;;;;;;;;;;;;;;;5093769;28;19923;-59
2023/12/12 04:32:59;;;;;;;;;;;;;;;;;;5085333;28;19951;-59
2023/12/12 04:35:25;;;;;;;;;;;;;;;;;;5073828;28;20347;-59
2023/12/12 04:37:51;;;;;;;;;;;;;;;;;;5074043;28;19924;-59
2023/12/12 04:40:17;;;;;;;;;;;;;;;;;;5076986;28;19964;-59
2023/12/12 04:42:43;;;;;;;;;;;;;;;;;;5085694;28;19912;-59
2023/12/12 04:45:09;;;;;;;;;;;;;;;;;;5090885;28;20007;-59
2023/12/12 04:47:34;;;;;;;;;;;;;;;;;;5094147;28;19915;-59
2023/12/12 04:50:00;;;;;;;;;;;;;;;;;;5078735;28;20081;-59
2023/12/12 04:52:26;;;;;;;;;;;;;;;;;;5076052;28;19912;-59
2023/12/12 04:54:53;;;;;;;;;;;;;;;;;;5092335;28;19912;-59
2023/12/12 04:57:19;;;;;;;;;;;;;;;;;;5093265;28;19908;-62
2023/12/12 04:59:46;;;;;;;;;;;;;;;;;;5090427;28;19919;-59
2023/12/12 05:02:12;;;;;;;;;;;;;;;;;;5091493;28;19920;-59
2023/12/12 05:04:38;;;;;;;;;;;;;;;;;;5079277;28;19957;-63
2023/12/12 05:07:04;;;;;;;;;;;;;;;;;;5074148;28;20444;-59
2023/12/12 05:09:30;;;;;;;;;;;;;;;;;;5080998;28;20019;-59
2023/12/12 05:11:55;;;;;;;;;;;;;;;;;;5085051;28;20053;-59
2023/12/12 05:14:21;;;;;;;;;;;;;;;;;;5076013;28;21542;-60
2023/12/12 05:16:47;;;;;;;;;;;;;;;;;;5078892;28;19944;-59
2023/12/12 05:19:14;;;;;;;;;;;;;;;;;;5085466;28;20354;-62
2023/12/12 05:21:40;;;;;;;;;;;;;;;;;;5076269;28;20014;-59
2023/12/12 05:24:06;;;;;;;;;;;;;;;;;;5084321;28;19916;-60
2023/12/12 05:26:32;;;;;;;;;;;;;;;;;;5084023;28;19924;-59
2023/12/12 05:28:58;;;;;;;;;;;;;;;;;;5078792;28;19964;-61
2023/12/12 05:31:24;;;;;;;;;;;;;;;;;;5074341;28;20357;-61
2023/12/12 05:33:50;;;;;;;;;;;;;;;;;;5090747;28;19912;-59
2023/12/12 05:36:16;;;;;;;;;;;;;;;;;;5080262;28;19912;-63
2023/12/12 05:38:42;;;;;;;;;;;;;;;;;;5083185;28;19920;-63
2023/12/12 05:41:08;;;;;;;;;;;;;;;;;;5078784;28;20273;-64
2023/12/12 05:43:33;;;;;;;;;;;;;;;;;;5087863;28;20392;-64
2023/12/12 05:45:59;;;;;;;;;;;;;;;;;;5081377;28;19913;-64
2023/12/12 05:48:25;;;;;;;;;;;;;;;;;;5079856;28;19912;-64
2023/12/12 05:50:51;;;;;;;;;;;;;;;;;;5088064;28;20428;-64
2023/12/12 05:53:17;;;;;;;;;;;;;;;;;;5083449;28;19960;-64
2023/12/12 05:55:43;;;;;;;;;;;;;;;;;;5079192;28;19912;-63
2023/12/12 05:58:09;;;;;;;;;;;;;;;;;;5079854;28;19912;-64
2023/12/12 06:00:35;;;;;;;;;;;;;;;;;;5086906;28;20368;-63
2023/12/12 06:03:02;;;;;;;;;;;;;;;;;;5084480;28;19965;-63
2023/12/12 06:05:27;;;;;;;;;;;;;;;;;;5080734;28;20379;-63
2023/12/12 06:07:53;;;;;;;;;;;;;;;;;;5091352;28;19916;-63
2023/12/12 06:10:19;;;;;;;;;;;;;;;;;;5088416;28;20007;-63
2023/12/12 06:12:45;;;;;;;;;;;;;;;;;;5082121;28;19908;-63
2023/12/12 06:15:11;;;;;;;;;;;;;;;;;;5081150;28;19957;-63
2023/12/12 06:17:38;;;;;;;;;;;;;;;;;;5074737;28;20009;-63
2023/12/12 06:20:04;;;;;;;;;;;;;;;;;;5079825;28;20299;-63
2023/12/12 06:22:30;;;;;;;;;;;;;;;;;;5087569;28;20379;-64
2023/12/12 06:24:56;;;;;;;;;;;;;;;;;;5091242;28;19955;-64
2023/12/12 06:27:22;;;;;;;;;;;;;;;;;;5092210;28;19942;-64
2023/12/12 06:29:49;;;;;;;;;;;;;;;;;;5077240;28;19919;-63
2023/12/12 06:32:15;;;;;;;;;;;;;;;;;;5071322;28;19920;-63
2023/12/12 06:34:43;;;;;;;;;;;;;;;;;;5085083;28;19962;-63
2023/12/12 06:37:09;;;;;;;;;;;;;;;;;;5092176;28;19908;-63
2023/12/12 06:39:35;;;;;;;;;;;;;;;;;;5090854;28;19954;-64
2023/12/12 06:42:01;;;;;;;;;;;;;;;;;;5072810;28;19924;-63
2023/12/12 06:44:27;;;;;;;;;;;;;;;;;;5078190;28;20363;-63
2023/12/12 06:46:53;;;;;;;;;;;;;;;;;;5077619;28;20398;-63
2023/12/12 06:49:19;;;;;;;;;;;;;;;;;;5075621;28;19992;-62
2023/12/12 06:51:45;;;;;;;;;;;;;;;;;;5093473;28;20333;-62
2023/12/12 06:54:11;;;;;;;;;;;;;;;;;;5093878;28;19920;-62
2023/12/12 06:56:37;;;;;;;;;;;;;;;;;;5096243;28;19908;-62
2023/12/12 06:59:05;;;;;;;;;;;;;;;;;;5075054;28;20003;-62
2023/12/12 07:01:31;;;;;;;;;;;;;;;;;;5087039;28;19924;-62
2023/12/12 07:03:57;;;;;;;;;;;;;;;;;;5088209;28;20349;-63
2023/12/12 07:06:23;;;;;;;;;;;;;;;;;;5095882;28;19908;-62
2023/12/12 07:08:49;;;;;;;;;;;;;;;;;;5092860;28;19946;-62
2023/12/12 07:11:15;;;;;;;;;;;;;;;;;;5090109;28;20811;-63
2023/12/12 07:13:41;;;;;;;;;;;;;;;;;;5090151;28;19965;-63
2023/12/12 07:16:10;;;;;;;;;;;;;;;;;;5089037;28;19912;-62
2023/12/12 07:18:36;;;;;;;;;;;;;;;;;;5094356;28;19912;-62
2023/12/12 07:21:02;;;;;;;;;;;;;;;;;;5093843;28;19965;-62
2023/12/12 07:23:29;;;;;;;;;;;;;;;;;;5090514;28;19920;-62
2023/12/12 07:25:56;;;;;;;;;;;;;;;;;;5075302;28;19913;-62
2023/12/12 07:28:22;;;;;;;;;;;;;;;;;;5082272;28;19923;-62
2023/12/12 07:30:48;;;;;;;;;;;;;;;;;;5078728;28;19918;-62
2023/12/12 07:33:14;;;;;;;;;;;;;;;;;;5094267;28;19995;-63
2023/12/12 07:35:40;;;;;;;;;;;;;;;;;;5086240;28;19944;-62
2023/12/12 07:38:06;;;;;;;;;;;;;;;;;;5085887;28;19919;-62
2023/12/12 07:40:32;;;;;;;;;;;;;;;;;;5074843;28;20011;-62
2023/12/12 07:42:58;;;;;;;;;;;;;;;;;;5077037;28;20015;-62
2023/12/12 07:45:24;;;;;;;;;;;;;;;;;;5084963;28;19973;-62
2023/12/12 07:47:50;;;;;;;;;;;;;;;;;;5081695;28;19909;-62
2023/12/12 07:50:17;;;;;;;;;;;;;;;;;;5093719;28;19923;-62
2023/12/12 07:52:43;;;;;;;;;;;;;;;;;;5089028;28;19999;-62
2023/12/12 07:55:09;;;;;;;;;;;;;;;;;;5078806;28;20453;-62
2023/12/12 07:57:35;;;;;;;;;;;;;;;;;;5082432;28;19916;-63
2023/12/12 08:00:01;;;;;;;;;;;;;;;;;;5088947;28;20338;-62
2023/12/12 08:02:27;;;;;;;;;;;;;;;;;;5082816;28;19912;-62
2023/12/12 08:04:53;;;;;;;;;;;;;;;;;;5093686;28;19919;-62
2023/12/12 08:07:20;;;;;;;;;;;;;;;;;;5074634;28;20369;-62
2023/12/12 08:09:46;;;;;;;;;;;;;;;;;;5089128;28;19912;-62
2023/12/12 08:12:12;;;;;;;;;;;;;;;;;;5092251;28;19961;-62
2023/12/12 08:14:38;;;;;;;;;;;;;;;;;;5093979;28;19996;-62
2023/12/12 08:17:04;;;;;;;;;;;;;;;;;;5093838;28;20015;-62
2023/12/12 08:19:30;;;;;;;;;;;;;;;;;;5093409;28;19995;-62
2023/12/12 08:21:56;;;;;;;;;;;;;;;;;;5093785;28;20038;-62
2023/12/12 08:24:22;;;;;;;;;;;;;;;;;;5091693;28;20292;-62
2023/12/12 08:26:48;;;;;;;;;;;;;;;;;;5092705;28;19927;-63
2023/12/12 08:29:17;;;;;;;;;;;;;;;;;;5079791;28;19955;-63
2023/12/12 08:31:42;;;;;;;;;;;;;;;;;;5089984;28;19912;-62
2023/12/12 08:34:08;;;;;;;;;;;;;;;;;;5093299;28;19915;-62
2023/12/12 08:36:34;;;;;;;;;;;;;;;;;;5087060;28;20402;-63
2023/12/12 08:39:00;;;;;;;;;;;;;;;;;;5075093;28;20387;-63
2023/12/12 08:41:28;;;;;;;;;;;;;;;;;;5093164;28;19965;-63
2023/12/12 08:43:54;;;;;;;;;;;;;;;;;;5077792;28;19979;-63
2023/12/12 08:46:22;;;;;;;;;;;;;;;;;;5080212;28;20380;-63
2023/12/12 08:48:48;;;;;;;;;;;;;;;;;;5088705;28;20372;-63
2023/12/12 08:51:14;;;;;;;;;;;;;;;;;;5092974;28;19954;-62
2023/12/12 08:53:40;;;;;;;;;;;;;;;;;;5093154;28;19959;-63
2023/12/12 08:56:06;;;;;;;;;;;;;;;;;;5092961;28;20015;-63
2023/12/12 08:58:32;;;;;;;;;;;;;;;;;;5075323;28;19938;-62
2023/12/12 09:00:58;;;;;;;;;;;;;;;;;;5079064;28;19912;-62
2023/12/12 09:03:24;;;;;;;;;;;;;;;;;;5092613;28;20387;-63
2023/12/12 09:05:50;;;;;;;;;;;;;;;;;;5088933;28;20043;-64
2023/12/12 09:08:16;;;;;;;;;;;;;;;;;;5075210;28;19951;-64
2023/12/12 09:10:42;;;;;;;;;;;;;;;;;;5092270;28;19908;-64
2023/12/12 09:13:08;;;;;;;;;;;;;;;;;;5077119;28;19957;-64
2023/12/12 09:15:34;;;;;;;;;;;;;;;;;;5082346;28;19957;-64
2023/12/12 09:18:00;;;;;;;;;;;;;;;;;;5092827;28;20002;-64
2023/12/12 09:20:26;;;;;;;;;;;;;;;;;;5092308;28;20015;-64
2023/12/12 09:22:52;;;;;;;;;;;;;;;;;;5089367;28;19917;-64
2023/12/12 09:25:19;;;;;;;;;;;;;;;;;;5082199;28;19974;-64
2023/12/12 09:27:45;;;;;;;;;;;;;;;;;;5090569;28;19920;-64
2023/12/12 09:30:11;;;;;;;;;;;;;;;;;;5092195;28;20418;-64
2023/12/12 09:32:37;;;;;;;;;;;;;;;;;;5073080;28;19916;-64
2023/12/12 09:35:04;;;;;;;;;;;;;;;;;;5071441;28;19920;-64
2023/12/12 09:37:29;;;;;;;;;;;;;;;;;;5075133;28;19908;-64
2023/12/12 09:39:55;;;;;;;;;;;;;;;;;;5091753;28;20230;-64
2023/12/12 09:42:21;;;;;;;;;;;;;;;;;;5092207;28;19951;-64
2023/12/12 09:44:47;;;;;;;;;;;;;;;;;;5086116;28;19943;-63
2023/12/12 09:47:13;;;;;;;;;;;;;;;;;;5085540;28;19912;-63
2023/12/12 09:49:39;;;;;;;;;;;;;;;;;;5076226;28;19912;-63
2023/12/12 09:52:05;;;;;;;;;;;;;;;;;;5074828;28;19916;-63
2023/12/12 09:54:31;;;;;;;;;;;;;;;;;;5092168;28;19912;-63
2023/12/12 09:56:57;;;;;;;;;;;;;;;;;;5074839;28;20031;-64
2023/12/12 09:59:23;;;;;;;;;;;;;;;;;;5088956;28;19908;-63
2023/12/12 10:01:49;;;;;;;;;;;;;;;;;;5074358;28;20042;-63
2023/12/12 10:04:15;;;;;;;;;;;;;;;;;;5091859;28;20390;-64
2023/12/12 10:06:41;;;;;;;;;;;;;;;;;;5091761;28;19944;-63
2023/12/12 10:09:07;;;;;;;;;;;;;;;;;;5081700;28;19974;-64
2023/12/12 10:11:33;;;;;;;;;;;;;;;;;;5082189;28;19912;-64
2023/12/12 10:14:00;;;;;;;;;;;;;;;;;;5091845;28;19999;-64
2023/12/12 10:16:26;;;;;;;;;;;;;;;;;;5090488;28;19912;-64
2023/12/12 10:18:52;;;;;;;;;;;;;;;;;;5091688;28;20402;-64
2023/12/12 10:21:18;;;;;;;;;;;;;;;;;;5091325;28;19919;-64
2023/12/12 10:23:45;;;;;;;;;;;;;;;;;;5091368;28;19952;-64
2023/12/12 10:26:11;;;;;;;;;;;;;;;;;;5091470;28;19993;-63
2023/12/12 10:28:37;;;;;;;;;;;;;;;;;;5091402;28;20384;-63
2023/12/12 10:31:02;;;;;;;;;;;;;;;;;;5084192;28;19951;-64
2023/12/12 10:33:28;;;;;;;;;;;;;;;;;;5071576;28;19916;-64
2023/12/12 10:35:54;;;;;;;;;;;;;;;;;;5086066;28;19915;-63
2023/12/12 10:38:20;;;;;;;;;;;;;;;;;;5070513;28;19960;-64
2023/12/12 10:40:47;;;;;;;;;;;;;;;;;;5086680;28;19912;-64
2023/12/12 10:43:13;;;;;;;;;;;;;;;;;;5082920;28;19966;-64
2023/12/12 10:45:40;;;;;;;;;;;;;;;;;;5086625;28;19959;-64
2023/12/12 10:48:06;;;;;;;;;;;;;;;;;;5078852;28;19920;-63
2023/12/12 10:50:32;;;;;;;;;;;;;;;;;;5073057;28;20399;-64
2023/12/12 10:52:59;;;;;;;;;;;;;;;;;;5091415;28;19991;-64
2023/12/12 10:55:25;;;;;;;;;;;;;;;;;;5086341;28;19916;-64
2023/12/12 10:57:54;;;;;;;;;;;;;;;;;;5074417;28;19955;-64
2023/12/12 11:00:20;;;;;;;;;;;;;;;;;;5069804;28;19913;-64
2023/12/12 11:02:46;;;;;;;;;;;;;;;;;;5080776;28;20344;-64
2023/12/12 11:05:12;;;;;;;;;;;;;;;;;;5091400;28;19943;-64
2023/12/12 11:07:38;;;;;;;;;;;;;;;;;;5091389;28;20364;-64
2023/12/12 11:10:04;;;;;;;;;;;;;;;;;;5088994;28;19966;-64
2023/12/12 11:12:30;;;;;;;;;;;;;;;;;;5090949;28;19919;-64
2023/12/12 11:14:56;;;;;;;;;;;;;;;;;;5091353;28;19944;-64
2023/12/12 11:17:22;;;;;;;;;;;;;;;;;;5074607;28;20017;-64
2023/12/12 11:19:48;;;;;;;;;;;;;;;;;;5088674;28;20007;-64
2023/12/12 11:22:14;;;;;;;;;;;;;;;;;;5091204;28;19958;-64
2023/12/12 11:24:40;;;;;;;;;;;;;;;;;;5077993;28;19947;-63
2023/12/12 11:27:05;;;;;;;;;;;;;;;;;;5083737;28;19931;-64
2023/12/12 11:29:31;;;;;;;;;;;;;;;;;;5079591;28;19924;-64
2023/12/12 11:31:57;;;;;;;;;;;;;;;;;;5072128;28;19915;-64
2023/12/12 11:34:23;;;;;;;;;;;;;;;;;;5076845;28;19960;-64
2023/12/12 11:36:52;;;;;;;;;;;;;;;;;;5086108;28;19916;-64
2023/12/12 11:39:18;;;;;;;;;;;;;;;;;;5093880;28;19915;-65
2023/12/12 11:41:44;;;;;;;;;;;;;;;;;;5094517;28;19908;-64
2023/12/12 11:44:10;;;;;;;;;;;;;;;;;;5094295;28;20090;-65
2023/12/12 11:46:35;;;;;;;;;;;;;;;;;;5094489;28;19908;-65
2023/12/12 11:49:01;;;;;;;;;;;;;;;;;;5088023;28;20419;-64
2023/12/12 11:51:27;;;;;;;;;;;;;;;;;;5073827;28;19908;-64
2023/12/12 11:53:53;;;;;;;;;;;;;;;;;;5092689;28;20030;-64
2023/12/12 11:56:19;;;;;;;;;;;;;;;;;;5085729;28;19908;-64
2023/12/12 11:58:45;;;;;;;;;;;;;;;;;;5087887;28;19927;-65
2023/12/12 12:01:11;;;;;;;;;;;;;;;;;;5073663;28;20426;-65
2023/12/12 12:03:37;;;;;;;;;;;;;;;;;;5091757;28;19999;-65
2023/12/12 12:06:03;;;;;;;;;;;;;;;;;;5094262;28;19912;-66
2023/12/12 12:08:29;;;;;;;;;;;;;;;;;;5089844;28;20977;-65
2023/12/12 12:10:56;;;;;;;;;;;;;;;;;;5085047;28;19912;-66
2023/12/12 12:13:22;;;;;;;;;;;;;;;;;;5092416;28;19993;-65
2023/12/12 12:15:50;;;;;;;;;;;;;;;;;;5081093;28;20420;-65
2023/12/12 12:18:16;;;;;;;;;;;;;;;;;;5092352;28;20336;-65
2023/12/12 12:20:42;;;;;;;;;;;;;;;;;;5093766;28;19916;-65
2023/12/12 12:23:08;;;;;;;;;;;;;;;;;;5093556;28;20011;-65
2023/12/12 12:25:33;;;;;;;;;;;;;;;;;;5094018;28;19919;-65
2023/12/12 12:27:59;;;;;;;;;;;;;;;;;;5080349;28;19924;-65
2023/12/12 12:30:25;;;;;;;;;;;;;;;;;;5072139;28;20445;-65
2023/12/12 12:32:51;;;;;;;;;;;;;;;;;;5091955;28;19969;-65
2023/12/12 12:35:17;;;;;;;;;;;;;;;;;;5091861;28;19965;-60
2023/12/12 12:37:43;;;;;;;;;;;;;;;;;;5093230;28;20260;-62
2023/12/12 12:40:10;;;;;;;;;;;;;;;;;;5090047;28;19950;-61
2023/12/12 12:42:36;;;;;;;;;;;;;;;;;;5077667;28;19908;-61
2023/12/12 12:45:03;;;;;;;;;;;;;;;;;;5092604;28;19977;-60
2023/12/12 12:47:29;;;;;;;;;;;;;;;;;;5093395;28;19919;-60
2023/12/12 12:49:54;;;;;;;;;;;;;;;;;;5092866;28;20384;-61
2023/12/12 12:52:20;;;;;;;;;;;;;;;;;;5073087;28;19965;-60
2023/12/12 12:54:47;;;;;;;;;;;;;;;;;;5076879;28;19944;-60
2023/12/12 12:57:13;;;;;;;;;;;;;;;;;;5090760;28;20022;-60
2023/12/12 12:59:39;;;;;;;;;;;;;;;;;;5092712;28;20034;-60
2023/12/12 13:02:05;;;;;;;;;;;;;;;;;;5078105;28;20309;-59
2023/12/12 13:04:30;;;;;;;;;;;;;;;;;;5092836;28;19939;-60
2023/12/12 13:06:58;;;;;;;;;;;;;;;;;;5086737;28;20316;-60
2023/12/12 13:09:24;;;;;;;;;;;;;;;;;;5071331;28;19991;-60
2023/12/12 13:11:50;;;;;;;;;;;;;;;;;;5080066;28;19947;-61
2023/12/12 13:14:15;;;;;;;;;;;;;;;;;;5092791;28;19977;-60
2023/12/12 13:16:41;;;;;;;;;;;;;;;;;;5075857;28;19998;-60
2023/12/12 13:19:09;;;;;;;;;;;;;;;;;;5092680;28;20291;-62
2023/12/12 13:21:35;;;;;;;;;;;;;;;;;;5092281;28;19912;-60
2023/12/12 13:24:00;;;;;;;;;;;;;;;;;;5092779;28;20329;-60
2023/12/12 13:26:26;;;;;;;;;;;;;;;;;;5086323;28;19920;-60
2023/12/12 13:28:52;;;;;;;;;;;;;;;;;;5071255;28;19948;-60
2023/12/12 13:31:20;;;;;;;;;;;;;;;;;;5091575;28;19908;-60
2023/12/12 13:33:46;;;;;;;;;;;;;;;;;;5077921;28;19924;-60
2023/12/12 13:36:12;;;;;;;;;;;;;;;;;;5078279;28;19916;-61
2023/12/12 13:38:38;;;;;;;;;;;;;;;;;;5092608;28;19950;-60
2023/12/12 13:41:04;;;;;;;;;;;;;;;;;;5091844;28;19960;-60
2023/12/12 13:43:30;;;;;;;;;;;;;;;;;;5090656;28;19961;-62
2023/12/12 13:45:56;;;;;;;;;;;;;;;;;;5092208;28;19912;-65
2023/12/12 13:48:22;;;;;;;;;;;;;;;;;;5092277;28;19923;-62
2023/12/12 13:50:48;;;;;;;;;;;;;;;;;;5091468;28;19908;-63
2023/12/12 13:53:13;;;;;;;;;;;;;;;;;;5092216;28;19947;-62
2023/12/12 13:55:40;;;;;;;;;;;;;;;;;;5083183;28;19928;-62
2023/12/12 13:58:06;;;;;;;;;;;;;;;;;;5092227;28;19908;-64
2023/12/12 14:00:32;;;;;;;;;;;;;;;;;;5089274;28;19956;-64
2023/12/12 14:02:59;;;;;;;;;;;;;;;;;;5091909;28;19997;-64
2023/12/12 14:05:25;;;;;;;;;;;;;;;;;;5079554;28;19913;-64
2023/12/12 14:07:51;;;;;;;;;;;;;;;;;;5085202;28;20372;-64
2023/12/12 14:10:17;;;;;;;;;;;;;;;;;;5077830;28;19954;-64
2023/12/12 14:12:43;;;;;;;;;;;;;;;;;;5073019;28;20019;-64
2023/12/12 14:15:09;;;;;;;;;;;;;;;;;;5070537;28;20287;-63
2023/12/12 14:17:35;;;;;;;;;;;;;;;;;;5085174;28;19913;-63
2023/12/12 14:20:02;;;;;;;;;;;;;;;;;;5090544;28;20370;-64
2023/12/12 14:22:28;;;;;;;;;;;;;;;;;;5091507;28;19908;-63
2023/12/12 14:24:54;;;;;;;;;;;;;;;;;;5087277;28;19934;-64
2023/12/12 14:27:20;;;;;;;;;;;;;;;;;;5083885;28;19974;-63
2023/12/12 14:29:46;;;;;;;;;;;;;;;;;;5087917;28;19908;-63
2023/12/12 14:32:12;;;;;;;;;;;;;;;;;;5084196;28;19912;-63
2023/12/12 14:34:39;;;;;;;;;;;;;;;;;;5078150;28;19995;-64
2023/12/12 14:37:05;;;;;;;;;;;;;;;;;;5078764;28;19975;-63
2023/12/12 14:39:30;;;;;;;;;;;;;;;;;;5090933;28;20348;-63
2023/12/12 14:41:56;;;;;;;;;;;;;;;;;;5077148;28;20023;-64
2023/12/12 14:44:22;;;;;;;;;;;;;;;;;;5091387;28;19912;-63
2023/12/12 14:46:48;;;;;;;;;;;;;;;;;;5091528;28;19912;-63
2023/12/12 14:49:14;;;;;;;;;;;;;;;;;;5083666;28;20000;-63
2023/12/12 14:51:40;;;;;;;;;;;;;;;;;;5070659;28;19913;-63
2023/12/12 14:54:07;;;;;;;;;;;;;;;;;;5083510;28;19959;-64
2023/12/12 14:56:35;;;;;;;;;;;;;;;;;;5092045;28;19912;-64
2023/12/12 14:59:01;;;;;;;;;;;;;;;;;;5091600;28;19908;-64
2023/12/12 15:01:27;;;;;;;;;;;;;;;;;;5083234;28;19913;-64
2023/12/12 15:03:53;;;;;;;;;;;;;;;;;;5071527;28;19963;-64
2023/12/12 15:06:19;;;;;;;;;;;;;;;;;;5082755;28;19912;-64
2023/12/12 15:08:45;;;;;;;;;;;;;;;;;;5087850;28;20312;-63
2023/12/12 15:11:11;;;;;;;;;;;;;;;;;;5081317;28;19916;-64
2023/12/12 15:13:37;;;;;;;;;;;;;;;;;;5087907;28;19913;-64
2023/12/12 15:16:03;;;;;;;;;;;;;;;;;;5086526;28;20032;-64
2023/12/12 15:18:29;;;;;;;;;;;;;;;;;;5086700;28;20287;-63
2023/12/12 15:20:55;;;;;;;;;;;;;;;;;;5087444;28;20385;-63
2023/12/12 15:23:21;;;;;;;;;;;;;;;;;;5089602;28;19916;-64
2023/12/12 15:25:47;;;;;;;;;;;;;;;;;;5076698;28;19920;-63
2023/12/12 15:28:13;;;;;;;;;;;;;;;;;;5084101;28;19920;-64
2023/12/12 15:30:39;;;;;;;;;;;;;;;;;;5083678;28;19919;-63
2023/12/12 15:33:05;;;;;;;;;;;;;;;;;;5086927;28;20024;-63
2023/12/12 15:35:32;;;;;;;;;;;;;;;;;;5088367;28;21511;-64
2023/12/12 15:37:58;;;;;;;;;;;;;;;;;;5095316;28;19908;-64
2023/12/12 15:40:24;;;;;;;;;;;;;;;;;;5094578;28;19951;-64
2023/12/12 15:42:50;;;;;;;;;;;;;;;;;;5081099;28;19926;-61
2023/12/12 15:45:16;;;;;;;;;;;;;;;;;;5086866;28;19920;-64
2023/12/12 15:47:42;;;;;;;;;;;;;;;;;;5093065;28;20285;-64
2023/12/12 15:50:08;;;;;;;;;;;;;;;;;;5089983;28;19982;-64
2023/12/12 15:52:34;;;;;;;;;;;;;;;;;;5089835;28;19980;-62
2023/12/12 15:55:00;;;;;;;;;;;;;;;;;;5090465;28;20324;-64
2023/12/12 15:57:26;;;;;;;;;;;;;;;;;;5085708;28;19957;-64
2023/12/12 15:59:52;;;;;;;;;;;;;;;;;;5086849;28;20391;-63
2023/12/12 16:02:18;;;;;;;;;;;;;;;;;;5085699;28;20003;-64
2023/12/12 16:04:44;;;;;;;;;;;;;;;;;;5091128;28;20338;-64
2023/12/12 16:07:10;;;;;;;;;;;;;;;;;;5091748;28;19912;-63
2023/12/12 16:09:36;;;;;;;;;;;;;;;;;;5086149;28;19916;-63
2023/12/12 16:12:02;;;;;;;;;;;;;;;;;;5089246;28;19948;-64
2023/12/12 16:14:28;;;;;;;;;;;;;;;;;;5081836;28;20381;-64
2023/12/12 16:16:54;;;;;;;;;;;;;;;;;;5086307;28;20276;-63
2023/12/12 16:19:21;;;;;;;;;;;;;;;;;;5078900;28;19912;-64
2023/12/12 16:21:47;;;;;;;;;;;;;;;;;;5081696;28;20276;-64
2023/12/12 16:24:13;;;;;;;;;;;;;;;;;;5088161;28;19920;-64
2023/12/12 16:26:38;;;;;;;;;;;;;;;;;;5082496;28;20291;-63
2023/12/12 16:29:04;;;;;;;;;;;;;;;;;;5085300;28;19995;-64
2023/12/12 16:31:30;;;;;;;;;;;;;;;;;;5091462;28;19958;-63
2023/12/12 16:33:56;;;;;;;;;;;;;;;;;;5082738;28;19982;-66
2023/12/12 16:36:22;;;;;;;;;;;;;;;;;;5078664;28;19916;-65
2023/12/12 16:38:51;;;;;;;;;;;;;;;;;;5090754;28;20005;-66
2023/12/12 16:41:17;;;;;;;;;;;;;;;;;;5085913;28;19986;-66
2023/12/12 16:43:44;;;;;;;;;;;;;;;;;;5080716;28;19955;-65
2023/12/12 16:46:10;;;;;;;;;;;;;;;;;;5088264;28;19920;-66
2023/12/12 16:48:36;;;;;;;;;;;;;;;;;;5088811;28;19951;-66
2023/12/12 16:51:02;;;;;;;;;;;;;;;;;;5082169;28;20287;-66
2023/12/12 16:53:28;;;;;;;;;;;;;;;;;;5083793;28;19918;-66
2023/12/12 16:55:55;;;;;;;;;;;;;;;;;;5083958;28;19920;-66
2023/12/12 16:58:21;;;;;;;;;;;;;;;;;;5077781;28;19920;-66